Time;durP1;ratioP1;P1;durP2;ratioP2;P2;SDS_P1;SDS_P2;PMS_P1;PMS_P2;Temp;Humidity;BMP_temperature;BMP_pressure;BME280_temperature;BME280_humidity;BME280_pressure;Samples;Min_cycle;Max_cycle;Signal;HPM_P1;HPM_P2
2023/09/24 00:01:15;;;;;;;3.20;1.70;;;;;;;-145.69;72.58;52250.31;5136107;27;20201;-80
2023/09/24 00:03:42;;;;;;;5.23;1.73;;;;;;;-145.69;72.86;52266.16;5134535;27;20659;-80
2023/09/24 00:06:10;;;;;;;6.23;1.90;;;;;;;-145.69;72.86;52266.16;5109362;27;20205;-81
2023/09/24 00:08:36;;;;;;;2.70;1.70;;;;;;;-145.69;71.75;52272.09;5096888;28;20194;-81
2023/09/24 00:11:04;;;;;;;2.17;1.40;;;;;;;-145.69;73.16;52260.22;5094694;28;20198;-80
2023/09/24 00:13:33;;;;;;;3.47;1.80;;;;;;;-145.69;74.44;52282.00;5095021;28;20198;-80
2023/09/24 00:16:04;;;;;;;5.03;1.87;;;;;;;-145.69;74.06;52254.28;5094676;28;20201;-81
2023/09/24 00:18:31;;;;;;;3.60;1.60;;;;;;;-145.69;73.03;52260.22;5094779;28;20320;-80
2023/09/24 00:20:57;;;;;;;6.23;1.73;;;;;;;-145.69;71.97;52272.09;5095139;28;20226;-80
2023/09/24 00:23:24;;;;;;;2.67;1.50;;;;;;;-145.69;71.70;52244.38;5094852;28;20202;-80
2023/09/24 00:25:50;;;;;;;3.67;1.57;;;;;;;-145.69;72.15;52297.84;5119920;27;20196;-80
2023/09/24 00:28:18;;;;;;;4.33;1.53;;;;;;;-145.69;72.73;52287.94;5135526;27;20201;-81
2023/09/24 00:30:45;;;;;;;3.97;1.60;;;;;;;-145.69;72.59;52283.97;5135619;27;20514;-80
2023/09/24 00:33:11;;;;;;;4.82;1.75;;;;;;;-145.69;74.49;52278.03;5133943;27;20822;-80
2023/09/24 00:35:38;;;;;;;1.63;1.10;;;;;;;-145.69;73.06;52285.97;5133914;27;20196;-80
2023/09/24 00:38:04;;;;;;;2.27;1.70;;;;;;;-145.69;73.28;52287.94;5135099;27;20618;-81
2023/09/24 00:40:31;;;;;;;9.67;1.40;;;;;;;-145.69;74.24;52293.88;5136066;27;20196;-81
2023/09/24 00:42:57;;;;;;;2.80;1.30;;;;;;;-145.69;72.76;52266.16;5137351;27;20197;-80
2023/09/24 00:45:26;;;;;;;2.20;1.30;;;;;;;-145.69;72.27;52270.13;5136495;27;20739;-80
2023/09/24 00:47:54;;;;;;;2.97;1.53;;;;;;;-145.69;73.38;52254.28;5137706;27;20219;-80
2023/09/24 00:50:21;;;;;;;2.83;1.40;;;;;;;-145.69;73.47;52278.03;5137234;27;20216;-80
2023/09/24 00:52:50;;;;;;;1.83;1.37;;;;;;;-145.69;72.78;52260.22;5137241;27;20197;-80
2023/09/24 00:55:17;;;;;;;4.17;1.27;;;;;;;-145.69;71.91;52274.06;5134863;27;20548;-80
2023/09/24 00:57:48;;;;;;;2.20;1.30;;;;;;;-145.69;72.21;52287.94;5129013;27;20231;-81
2023/09/24 01:00:17;;;;;;;1.77;1.40;;;;;;;-145.69;72.46;52248.34;5117661;27;20240;-80
2023/09/24 01:02:46;;;;;;;5.13;1.53;;;;;;;-145.69;72.88;52268.13;5114487;28;20247;-80
2023/09/24 01:05:14;;;;;;;1.97;1.30;;;;;;;-145.69;74.48;52276.06;5114408;28;20205;-81
2023/09/24 01:07:42;;;;;;;2.47;1.30;;;;;;;-145.69;73.07;52315.66;5114164;28;20208;-80
2023/09/24 01:10:11;;;;;;;4.63;1.60;;;;;;;-145.69;73.12;52280.00;5114521;28;20206;-80
2023/09/24 01:12:39;;;;;;;1.97;1.30;;;;;;;-145.69;71.36;52278.03;5113118;28;20297;-81
2023/09/24 01:15:08;;;;;;;3.10;1.50;;;;;;;-145.69;72.16;52301.81;5114585;27;20653;-80
2023/09/24 01:17:36;;;;;;;2.40;1.50;;;;;;;-145.69;74.12;52262.19;5111724;28;20557;-80
2023/09/24 01:20:06;;;;;;;5.33;1.40;;;;;;;-145.69;72.98;52282.00;5114082;28;20240;-80
2023/09/24 01:22:36;;;;;;;2.67;1.40;;;;;;;-145.69;72.75;52282.00;5114689;28;20228;-80
2023/09/24 01:25:03;;;;;;;5.23;1.30;;;;;;;-145.69;72.51;52250.31;5114560;28;20246;-80
2023/09/24 01:27:30;;;;;;;7.93;1.50;;;;;;;-145.69;72.15;52285.97;5106176;28;20200;-80
2023/09/24 01:29:57;;;;;;;2.70;1.40;;;;;;;-145.69;73.41;52282.00;5114263;28;20288;-80
2023/09/24 01:32:23;;;;;;;7.60;1.50;;;;;;;-145.69;73.57;52295.84;5113831;28;20250;-80
2023/09/24 01:34:50;;;;;;;1.60;1.27;;;;;;;-145.69;72.83;52283.97;5113872;28;20209;-80
2023/09/24 01:37:18;;;;;;;2.90;1.40;;;;;;;-145.69;72.31;52307.75;5115731;28;20665;-80
2023/09/24 01:39:47;;;;;;;2.70;1.60;;;;;;;-145.69;73.02;52258.22;5113578;28;20201;-80
2023/09/24 01:42:14;;;;;;;2.70;1.67;;;;;;;-145.69;72.49;52278.03;5113701;28;20201;-80
2023/09/24 01:44:41;;;;;;;3.47;1.57;;;;;;;-145.69;72.83;52301.81;5113901;28;20247;-80
2023/09/24 01:47:08;;;;;;;6.80;1.93;;;;;;;-145.69;71.97;52291.91;5114461;28;20232;-81
2023/09/24 01:49:34;;;;;;;7.43;1.90;;;;;;;-145.69;71.94;52270.13;5113507;28;20224;-83
2023/09/24 01:52:03;;;;;;;5.50;2.10;;;;;;;-145.69;72.26;52276.06;5113348;28;20201;-80
2023/09/24 01:54:30;;;;;;;3.33;1.80;;;;;;;-145.69;73.46;52301.81;5112978;28;20201;-80
2023/09/24 01:56:58;;;;;;;1.83;1.30;;;;;;;-145.69;73.16;52283.97;5132269;28;20192;-80
2023/09/24 01:59:24;;;;;;;6.67;1.77;;;;;;;-145.69;73.88;52297.84;5133685;27;20621;-80
2023/09/24 02:01:52;;;;;;;4.10;1.87;;;;;;;-145.69;73.28;52264.16;5133993;27;20197;-80
2023/09/24 02:04:18;;;;;;;2.70;1.53;;;;;;;-145.69;72.39;52282.00;5133869;27;20655;-79
2023/09/24 02:06:45;;;;;;;2.23;1.80;;;;;;;-145.69;72.86;52266.16;5133497;27;20239;-80
2023/09/24 02:09:14;;;;;;;2.30;1.50;;;;;;;-145.69;72.21;52289.91;5124283;27;20711;-80
2023/09/24 02:11:40;;;;;;;2.57;1.50;;;;;;;-145.69;71.27;52280.00;5117200;28;20300;-80
2023/09/24 02:14:08;;;;;;;3.33;1.43;;;;;;;-145.69;71.91;52254.28;5099447;27;20205;-80
2023/09/24 02:16:35;;;;;;;4.60;1.20;;;;;;;-145.69;71.22;52297.84;5096563;28;20657;-80
2023/09/24 02:19:02;;;;;;;2.83;1.27;;;;;;;-145.69;71.35;52264.16;5115931;27;20221;-80
2023/09/24 02:21:30;;;;;;;7.73;2.07;;;;;;;-145.69;72.13;52282.00;5116761;28;20239;-80
2023/09/24 02:23:57;;;;;;;2.53;1.60;;;;;;;-145.69;72.46;52315.66;5117364;27;20201;-80
2023/09/24 02:26:26;;;;;;;4.50;1.50;;;;;;;-145.69;73.65;52297.84;5117338;27;20201;-80
2023/09/24 02:28:53;;;;;;;1.50;1.30;;;;;;;-145.69;73.70;52274.06;5117004;28;20208;-80
2023/09/24 02:31:21;;;;;;;3.60;1.60;;;;;;;-145.69;74.07;52291.91;5116694;28;20296;-80
2023/09/24 02:33:48;;;;;;;3.40;1.47;;;;;;;-145.69;74.24;52258.22;5126949;27;20197;-80
2023/09/24 02:36:14;;;;;;;2.00;1.77;;;;;;;-145.69;74.41;52287.94;5137673;27;20203;-80
2023/09/24 02:38:41;;;;;;;3.80;1.40;;;;;;;-145.69;73.71;52274.06;5136967;27;20594;-80
2023/09/24 02:41:07;;;;;;;2.30;1.60;;;;;;;-145.69;72.31;52297.84;5136901;27;20208;-79
2023/09/24 02:43:34;;;;;;;4.87;1.70;;;;;;;-145.69;73.75;52303.78;5137333;27;20295;-81
2023/09/24 02:46:03;;;;;;;3.20;1.70;;;;;;;-145.69;73.86;52295.84;5137882;27;20209;-80
2023/09/24 02:48:32;;;;;;;1.33;1.20;;;;;;;-145.69;72.93;52218.63;5137414;27;20197;-81
2023/09/24 02:51:08;;;;;;;6.80;1.50;;;;;;;-145.69;73.72;52256.25;5137045;27;20655;-80
2023/09/24 02:53:34;;;;;;;7.47;1.57;;;;;;;-145.69;73.15;52250.31;5137192;27;20200;-80
2023/09/24 02:56:01;;;;;;;1.60;1.10;;;;;;;-145.69;72.65;52270.13;5129579;27;20193;-81
2023/09/24 02:58:27;;;;;;;3.67;1.90;;;;;;;-145.69;73.80;52307.75;5115105;28;20451;-81
2023/09/24 03:00:54;;;;;;;3.00;1.37;;;;;;;-145.69;73.13;52276.06;5115809;28;20717;-80
2023/09/24 03:03:20;;;;;;;6.07;1.90;;;;;;;-145.69;73.65;52285.97;5116442;28;20208;-80
2023/09/24 03:05:48;;;;;;;2.90;1.27;;;;;;;-145.69;74.76;52305.75;5116246;28;20200;-80
2023/09/24 03:08:16;;;;;;;4.10;1.40;;;;;;;-145.69;73.27;52285.97;5116045;28;20229;-80
2023/09/24 03:10:43;;;;;;;2.53;1.50;;;;;;;-145.69;72.81;52282.00;5116010;28;20224;-80
2023/09/24 03:13:09;;;;;;;5.53;1.40;;;;;;;-145.69;72.98;52274.06;5115746;28;20205;-80
2023/09/24 03:15:36;;;;;;;2.50;1.33;;;;;;;-145.69;73.39;52282.00;5115835;28;20205;-80
2023/09/24 03:18:03;;;;;;;5.27;1.33;;;;;;;-145.69;73.93;52289.91;5115905;28;20229;-80
2023/09/24 03:20:30;;;;;;;1.53;1.20;;;;;;;-145.69;73.17;52262.19;5114942;28;20197;-79
2023/09/24 03:23:02;;;;;;;5.10;1.70;;;;;;;-145.69;72.84;52274.06;5115602;28;20219;-80
2023/09/24 03:25:29;;;;;;;1.60;1.40;;;;;;;-145.69;72.34;52282.00;5117990;27;20193;-80
2023/09/24 03:27:58;;;;;;;2.13;1.83;;;;;;;-145.69;73.03;52266.16;5135701;27;20643;-80
2023/09/24 03:30:25;;;;;;;2.97;1.30;;;;;;;-145.69;73.85;52293.88;5133498;27;20193;-80
2023/09/24 03:32:52;;;;;;;3.47;1.50;;;;;;;-145.69;73.71;52289.91;5136246;27;20200;-80
2023/09/24 03:35:23;;;;;;;3.97;1.53;;;;;;;-145.69;73.80;52244.38;5120581;27;20197;-80
2023/09/24 03:37:51;;;;;;;8.10;1.90;;;;;;;-145.69;73.47;52285.97;5115572;28;20284;-80
2023/09/24 03:40:20;;;;;;;5.03;1.50;;;;;;;-145.69;73.68;52301.81;5115403;28;20292;-80
2023/09/24 03:42:47;;;;;;;2.17;1.30;;;;;;;-145.69;72.89;52287.94;5115387;28;20283;-80
2023/09/24 03:45:15;;;;;;;2.27;1.40;;;;;;;-145.69;73.61;52276.06;5115202;27;20602;-80
2023/09/24 03:47:43;;;;;;;2.10;1.53;;;;;;;-145.69;74.84;52266.16;5115449;27;20197;-80
2023/09/24 03:50:13;;;;;;;5.73;1.73;;;;;;;-145.69;74.06;52293.88;5129139;27;20193;-80
2023/09/24 03:52:40;;;;;;;6.27;1.63;;;;;;;-145.69;74.10;52289.91;5135919;27;20200;-80
2023/09/24 03:55:06;;;;;;;2.30;1.90;;;;;;;-145.69;73.30;52289.91;5135478;27;20200;-80
2023/09/24 03:57:35;;;;;;;1.63;1.30;;;;;;;-145.69;72.47;52321.59;5135590;27;20627;-80
2023/09/24 04:00:06;;;;;;;3.73;1.30;;;;;;;-145.69;71.73;52289.91;5135792;27;20236;-80
2023/09/24 04:02:33;;;;;;;2.03;1.23;;;;;;;-145.69;72.01;52236.44;5135745;27;20208;-81
2023/09/24 04:04:59;;;;;;;2.30;1.20;;;;;;;-145.69;71.74;52321.59;5135548;27;20208;-80
2023/09/24 04:07:27;;;;;;;3.03;1.63;;;;;;;-145.69;72.31;52266.16;5135478;27;20674;-80
2023/09/24 04:09:55;;;;;;;2.17;1.20;;;;;;;-145.69;72.22;52289.91;5135457;27;20223;-80
2023/09/24 04:12:22;;;;;;;2.13;1.30;;;;;;;-145.69;73.01;52282.00;5135595;27;20205;-80
2023/09/24 04:14:53;;;;;;;2.03;1.60;;;;;;;-145.69;73.47;52280.00;5133142;27;20225;-79
2023/09/24 04:17:20;;;;;;;2.97;1.70;;;;;;;-145.69;72.76;52331.50;5093847;28;20228;-80
2023/09/24 04:19:46;;;;;;;2.20;1.60;;;;;;;-145.69;72.95;52323.59;5105016;28;20225;-80
2023/09/24 04:22:13;;;;;;;2.10;1.30;;;;;;;-145.69;74.22;52321.59;5114388;28;20201;-80
2023/09/24 04:24:39;;;;;;;2.20;1.50;;;;;;;-145.69;75.28;52272.09;5114300;27;20205;-79
2023/09/24 04:27:07;;;;;;;2.63;1.60;;;;;;;-145.69;74.28;52266.16;5098260;28;20197;-80
2023/09/24 04:29:34;;;;;;;4.37;1.60;;;;;;;-145.69;74.50;52268.13;5114430;28;20255;-80
2023/09/24 04:32:02;;;;;;;3.33;1.70;;;;;;;-145.69;74.09;52301.81;5114294;28;20678;-80
2023/09/24 04:34:28;;;;;;;2.40;1.50;;;;;;;-145.69;73.97;52327.53;5114217;28;20293;-80
2023/09/24 04:36:55;;;;;;;2.23;1.43;;;;;;;-145.69;73.03;52285.97;5114187;28;20652;-80
2023/09/24 04:39:22;;;;;;;3.67;2.10;;;;;;;-145.69;72.97;52301.81;5114399;28;20233;-79
2023/09/24 04:41:49;;;;;;;1.60;1.50;;;;;;;-145.69;72.68;52299.81;5114514;28;20288;-80
2023/09/24 04:44:16;;;;;;;2.43;1.40;;;;;;;-145.69;72.61;52272.09;5114403;28;20208;-80
2023/09/24 04:46:42;;;;;;;2.23;1.20;;;;;;;-145.69;72.58;52293.88;5114165;28;20198;-79
2023/09/24 04:49:10;;;;;;;4.40;1.53;;;;;;;-145.69;72.79;52276.06;5113852;28;20530;-80
2023/09/24 04:51:37;;;;;;;5.50;1.60;;;;;;;-145.69;73.52;52309.72;5114179;28;20201;-80
2023/09/24 04:54:03;;;;;;;3.33;1.50;;;;;;;-145.69;73.55;52289.91;5114180;28;20204;-80
2023/09/24 04:56:30;;;;;;;4.87;1.37;;;;;;;-145.69;72.77;52280.00;5114017;28;20208;-80
2023/09/24 04:58:57;;;;;;;4.23;1.53;;;;;;;-145.69;72.98;52301.81;5130233;27;20223;-80
2023/09/24 05:01:23;;;;;;;2.97;1.43;;;;;;;-145.69;73.75;52327.53;5134335;27;20200;-80
2023/09/24 05:03:51;;;;;;;2.43;1.40;;;;;;;-145.69;73.13;52301.81;5134115;27;20196;-80
2023/09/24 05:06:19;;;;;;;12.70;1.60;;;;;;;-145.69;73.42;52293.88;5134336;27;20211;-80
2023/09/24 05:08:46;;;;;;;4.03;1.67;;;;;;;-145.69;73.45;52293.88;5134487;27;20196;-80
2023/09/24 05:11:12;;;;;;;2.20;1.70;;;;;;;-145.69;73.13;52301.81;5134031;27;20208;-80
2023/09/24 05:13:40;;;;;;;4.47;2.00;;;;;;;-145.69;73.97;52303.78;5134349;27;20204;-81
2023/09/24 05:16:06;;;;;;;4.37;1.80;;;;;;;-145.69;74.19;52270.13;5134536;27;20640;-80
2023/09/24 05:18:33;;;;;;;4.30;1.60;;;;;;;-145.69;74.99;52327.53;5133951;27;20251;-80
2023/09/24 05:20:59;;;;;;;4.57;1.83;;;;;;;-145.69;76.12;52289.91;5134887;27;20225;-80
2023/09/24 05:23:27;;;;;;;4.40;1.80;;;;;;;-145.69;75.85;52303.78;5134515;27;20204;-80
2023/09/24 05:25:54;;;;;;;4.83;1.80;;;;;;;-145.69;75.10;52293.88;5134382;27;20197;-80
2023/09/24 05:28:20;;;;;;;3.80;1.80;;;;;;;-145.69;73.92;52299.81;5122270;27;20212;-80
2023/09/24 05:30:52;;;;;;;2.43;1.60;;;;;;;-145.69;73.71;52301.81;5113156;28;20201;-80
2023/09/24 05:33:19;;;;;;;6.33;1.77;;;;;;;-145.69;73.65;52293.88;5113427;28;20254;-79
2023/09/24 05:35:50;;;;;;;3.13;1.80;;;;;;;-145.69;73.47;52283.97;5113284;28;20272;-80
2023/09/24 05:38:16;;;;;;;4.93;1.70;;;;;;;-145.69;73.67;52287.94;5115807;28;20194;-79
2023/09/24 05:40:45;;;;;;;4.33;1.80;;;;;;;-145.69;73.50;52295.84;5129583;27;20237;-80
2023/09/24 05:43:11;;;;;;;1.67;1.40;;;;;;;-145.69;73.45;52282.00;5112805;28;20224;-80
2023/09/24 05:45:45;;;;;;;3.93;1.67;;;;;;;-145.69;73.50;52278.03;5113037;28;20200;-79
2023/09/24 05:48:11;;;;;;;1.50;1.20;;;;;;;-145.69;73.91;52289.91;5113454;28;20193;-79
2023/09/24 05:50:38;;;;;;;2.27;1.40;;;;;;;-145.69;73.62;52285.97;5125485;28;20196;-80
2023/09/24 05:53:06;;;;;;;1.77;1.60;;;;;;;-145.69;74.41;52268.13;5105663;28;20280;-80
2023/09/24 05:55:32;;;;;;;2.00;1.30;;;;;;;-145.69;74.34;52287.94;5113399;28;20251;-80
2023/09/24 05:58:00;;;;;;;5.33;1.53;;;;;;;-145.69;74.58;52307.75;5113037;28;20209;-80
2023/09/24 06:00:28;;;;;;;3.50;1.50;;;;;;;-145.69;74.68;52303.78;5112865;28;20303;-80
2023/09/24 06:02:54;;;;;;;3.27;1.67;;;;;;;-145.69;74.53;52282.00;5113079;28;20564;-80
2023/09/24 06:05:21;;;;;;;2.00;1.67;;;;;;;-145.69;74.58;52293.88;5113300;28;20287;-81
2023/09/24 06:07:47;;;;;;;1.83;1.70;;;;;;;-145.69;75.05;52272.09;5113361;28;20201;-81
2023/09/24 06:10:14;;;;;;;4.57;1.60;;;;;;;-145.69;74.74;52309.72;5113562;28;20193;-81
2023/09/24 06:12:40;;;;;;;6.30;1.80;;;;;;;-145.69;76.20;52282.00;5112812;28;20225;-80
2023/09/24 06:15:10;;;;;;;4.40;2.07;;;;;;;-145.69;77.08;52305.75;5111903;28;20201;-80
2023/09/24 06:17:37;;;;;;;2.70;2.20;;;;;;;-145.69;76.73;52260.22;5112970;28;20228;-80
2023/09/24 06:20:04;;;;;;;8.03;2.40;;;;;;;-145.69;76.19;52307.75;5124323;28;20225;-80
2023/09/24 06:22:31;;;;;;;3.40;2.40;;;;;;;-145.69;76.01;52258.22;5133444;27;20200;-80
2023/09/24 06:24:57;;;;;;;8.13;2.43;;;;;;;-145.69;76.26;52268.13;5133397;27;20678;-80
2023/09/24 06:27:24;;;;;;;7.90;2.20;;;;;;;-145.69;75.15;52254.28;5130425;27;20584;-80
2023/09/24 06:29:51;;;;;;;3.53;2.07;;;;;;;-145.69;75.55;52297.84;5109785;28;20189;-79
2023/09/24 06:32:18;;;;;;;5.03;1.80;;;;;;;-145.69;75.48;52266.16;5112991;28;20201;-80
2023/09/24 06:34:45;;;;;;;6.20;1.90;;;;;;;-145.69;75.35;52270.13;5112707;28;20197;-80
2023/09/24 06:37:11;;;;;;;3.07;2.10;;;;;;;-145.69;75.82;52258.22;5113123;28;20198;-80
2023/09/24 06:39:38;;;;;;;2.80;1.67;;;;;;;-145.69;75.38;52276.06;5112424;28;20218;-80
2023/09/24 06:42:04;;;;;;;6.07;2.00;;;;;;;-145.69;75.35;52309.72;5112959;28;20208;-81
2023/09/24 06:44:31;;;;;;;3.60;1.83;;;;;;;-145.69;75.42;52274.06;5112602;28;20197;-80
2023/09/24 06:46:57;;;;;;;2.93;1.90;;;;;;;-145.69;75.51;52266.16;5113059;28;20197;-80
2023/09/24 06:49:25;;;;;;;3.77;2.27;;;;;;;-145.69;75.38;52246.34;5117743;28;20204;-79
2023/09/24 06:51:53;;;;;;;3.77;1.97;;;;;;;-145.69;75.60;52270.13;5133157;27;20197;-80
2023/09/24 06:54:20;;;;;;;4.03;2.07;;;;;;;-145.69;75.40;52268.13;5133328;27;20193;-80
2023/09/24 06:56:46;;;;;;;4.30;2.23;;;;;;;-145.69;75.35;52234.47;5135966;27;20601;-80
2023/09/24 06:59:13;;;;;;;3.33;1.90;;;;;;;-145.69;75.55;52274.06;5136743;27;20204;-81
2023/09/24 07:01:39;;;;;;;5.80;2.13;;;;;;;-145.69;75.38;52262.19;5140254;27;20197;-81
2023/09/24 07:04:06;;;;;;;8.23;2.30;;;;;;;-145.69;75.67;52238.44;5139995;27;20200;-82
2023/09/24 07:06:35;;;;;;;3.70;2.10;;;;;;;-145.69;76.29;52283.97;5146894;27;20524;-81
2023/09/24 07:09:02;;;;;;;3.30;2.10;;;;;;;-145.69;75.64;52234.47;5141357;27;20201;-81
2023/09/24 07:11:33;;;;;;;2.80;1.87;;;;;;;-145.69;75.86;52299.81;5139325;27;20201;-82
2023/09/24 07:13:59;;;;;;;2.90;2.20;;;;;;;-145.69;75.52;52276.06;5136620;27;20241;-82
2023/09/24 07:16:27;;;;;;;2.30;2.00;;;;;;;-145.69;75.96;52194.88;5124975;27;20193;-81
2023/09/24 07:18:54;;;;;;;4.40;1.90;;;;;;;-145.69;76.48;52264.16;5117976;27;20236;-81
2023/09/24 07:21:24;;;;;;;2.57;1.87;;;;;;;-145.69;76.09;52258.22;5135490;27;20733;-81
2023/09/24 07:23:52;;;;;;;5.97;2.07;;;;;;;-145.69;76.18;52236.44;5132739;27;20534;-80
2023/09/24 07:26:19;;;;;;;5.43;2.03;;;;;;;-145.69;76.57;52260.22;5116749;27;20262;-81
2023/09/24 07:28:46;;;;;;;6.07;2.40;;;;;;;-145.69;76.23;52234.47;5125930;27;20194;-81
2023/09/24 07:31:14;;;;;;;6.43;2.37;;;;;;;-145.69;76.53;52226.53;5117911;28;20193;-80
2023/09/24 07:33:42;;;;;;;4.00;2.27;;;;;;;-145.69;76.91;52226.53;5117940;28;20254;-80
2023/09/24 07:36:08;;;;;;;9.33;2.10;;;;;;;-145.69;76.74;52272.09;5116642;27;20235;-81
2023/09/24 07:38:35;;;;;;;5.77;2.47;;;;;;;-145.69;76.56;52260.22;5114259;28;20228;-79
2023/09/24 07:41:03;;;;;;;4.50;2.13;;;;;;;-145.69;76.02;52260.22;5126949;27;20518;-79
2023/09/24 07:43:30;;;;;;;3.97;1.80;;;;;;;-145.69;76.19;52248.34;5116321;28;20208;-79
2023/09/24 07:45:59;;;;;;;4.90;2.27;;;;;;;-145.69;75.94;52266.16;5132032;27;20230;-80
2023/09/24 07:48:25;;;;;;;2.90;1.90;;;;;;;-145.69;76.88;52248.34;5135824;27;20201;-80
2023/09/24 07:50:55;;;;;;;3.83;1.90;;;;;;;-145.69;76.87;52256.25;5115228;27;20715;-80
2023/09/24 07:53:23;;;;;;;3.58;1.83;;;;;;;-145.69;76.14;52224.56;5114104;28;20683;-79
2023/09/24 07:55:55;;;;;;;10.95;2.50;;;;;;;-145.69;77.52;52226.53;5094763;28;20464;-78
2023/09/24 07:58:23;;;;;;;8.30;2.20;;;;;;;-145.69;76.94;52226.53;5094456;28;20209;-78
2023/09/24 08:00:50;;;;;;;14.38;2.47;;;;;;;-145.69;76.61;52218.63;5094633;28;20225;-79
2023/09/24 08:03:16;;;;;;;8.93;2.65;;;;;;;-145.69;76.49;52222.59;5094415;28;20206;-79
2023/09/24 08:05:43;;;;;;;8.52;2.55;;;;;;;-145.69;75.96;52208.72;5094050;28;20194;-79
2023/09/24 08:08:09;;;;;;;4.75;2.20;;;;;;;-145.69;76.31;52228.53;5127913;27;20201;-79
2023/09/24 08:10:36;;;;;;;4.95;2.33;;;;;;;-145.69;76.54;52210.72;5115637;27;20194;-79
2023/09/24 08:13:04;;;;;;;5.60;2.03;;;;;;;-145.69;76.38;52214.66;5135350;27;20192;-79
2023/09/24 08:15:31;;;;;;;4.53;1.83;;;;;;;-145.69;75.72;52204.75;5109287;27;20189;-79
2023/09/24 08:17:58;;;;;;;6.47;1.95;;;;;;;-145.69;75.99;52242.38;5116054;27;20225;-79
2023/09/24 08:20:25;;;;;;;5.40;2.53;;;;;;;-145.69;76.43;52214.66;5125725;27;20690;-79
2023/09/24 08:22:51;;;;;;;6.25;2.70;;;;;;;-145.69;77.03;52208.72;5135427;27;20231;-79
2023/09/24 08:25:18;;;;;;;5.10;2.08;;;;;;;-145.69;76.43;52230.50;5108127;27;20654;-79
2023/09/24 08:27:44;;;;;;;3.08;1.83;;;;;;;-145.69;77.13;52194.88;5104238;27;20200;-78
2023/09/24 08:30:11;;;;;;;5.68;2.47;;;;;;;-145.69;76.93;52238.44;5120390;27;20244;-79
2023/09/24 08:32:39;;;;;;;4.22;2.33;;;;;;;-145.69;76.61;52186.94;5114230;28;20201;-78
2023/09/24 08:35:06;;;;;;;7.60;2.33;;;;;;;-145.69;75.52;52210.72;5107591;28;20190;-78
2023/09/24 08:37:33;;;;;;;4.47;1.98;;;;;;;-145.69;76.51;52228.53;5125140;27;20200;-79
2023/09/24 08:40:00;;;;;;;6.82;2.13;;;;;;;-145.69;76.69;52210.72;5125042;27;20646;-79
2023/09/24 08:42:27;;;;;;;6.22;1.92;;;;;;;-145.69;76.24;52210.72;5114090;28;20209;-78
2023/09/24 08:45:03;;;;;;;4.35;2.70;;;;;;;-145.69;76.63;52186.94;5113972;28;20595;-79
2023/09/24 08:47:32;;;;;;;12.25;2.20;;;;;;;-145.69;76.29;52194.88;5116502;27;20259;-78
2023/09/24 08:50:03;;;;;;;2.72;1.98;;;;;;;-145.69;77.45;52202.78;5115731;27;20720;-78
2023/09/24 08:52:31;;;;;;;4.53;1.98;;;;;;;-145.69;74.06;52202.78;5093610;28;20262;-79
2023/09/24 08:55:00;;;;;;;3.78;1.80;;;;;;;-145.69;74.04;52163.19;5102376;28;20204;-78
2023/09/24 08:57:26;;;;;;;5.68;1.90;;;;;;;-145.69;73.16;52159.22;5115396;27;20197;-79
2023/09/24 08:59:53;;;;;;;2.85;1.48;;;;;;;-145.69;75.37;52155.25;5118287;27;20217;-78
2023/09/24 09:02:19;;;;;;;3.95;1.50;;;;;;;-145.69;73.64;52179.03;5093305;28;20199;-79
2023/09/24 09:04:49;;;;;;;5.03;1.35;;;;;;;-145.69;72.09;52204.75;5093613;28;20228;-78
2023/09/24 09:07:17;;;;;;;4.28;1.40;;;;;;;-145.69;68.77;52218.63;5109093;27;20189;-78
2023/09/24 09:09:53;;;;;;;2.20;1.13;;;;;;;-145.69;68.47;52175.06;5117435;27;20193;-79
2023/09/24 09:12:19;;;;;;;3.97;1.30;;;;;;;-145.69;69.42;52202.78;5113772;28;20208;-79
2023/09/24 09:14:46;;;;;;;2.20;0.90;;;;;;;-145.69;64.97;52167.13;5108399;28;20562;-79
2023/09/24 09:17:12;;;;;;;2.63;1.20;;;;;;;-145.69;65.51;52167.13;5113868;28;20564;-79
2023/09/24 09:19:52;;;;;;;3.38;1.08;;;;;;;-145.69;61.70;52188.91;5123621;27;20247;-78
2023/09/24 09:22:21;;;;;;;3.92;1.05;;;;;;;-145.69;61.38;52198.81;5113738;28;20197;-79
2023/09/24 09:24:50;;;;;;;5.80;1.10;;;;;;;-145.69;57.82;52184.97;5113642;28;20208;-78
2023/09/24 09:27:17;;;;;;;3.50;1.10;;;;;;;-145.69;62.84;52161.19;5113708;28;20197;-78
2023/09/24 09:29:43;;;;;;;3.13;1.13;;;;;;;-145.69;62.50;52155.25;5113719;28;20185;-78
2023/09/24 09:32:10;;;;;;;2.60;1.00;;;;;;;-145.69;59.49;52182.97;5113329;28;20229;-78
2023/09/24 09:34:37;;;;;;;2.65;1.00;;;;;;;-145.69;57.55;52155.25;5113331;28;20185;-78
2023/09/24 09:37:16;;;;;;;2.13;0.98;;;;;;;-145.69;56.97;52179.03;5119164;27;20655;-78
2023/09/24 09:39:44;;;;;;;5.57;1.20;;;;;;;-145.69;60.60;52159.22;5123602;27;20334;-78
2023/09/24 09:42:15;;;;;;;2.80;1.05;;;;;;;-145.69;55.57;52151.28;5093372;28;20316;-78
2023/09/24 09:44:44;;;;;;;1.58;0.95;;;;;;;-145.69;54.09;52159.22;5102224;28;20228;-80
2023/09/24 09:47:13;;;;;;;6.03;0.88;;;;;;;-145.69;51.73;52131.50;5117107;27;20671;-80
2023/09/24 09:49:45;;;;;;;1.70;0.80;;;;;;;-145.69;53.95;52188.91;5115493;28;20205;-80
2023/09/24 09:52:16;;;;;;;1.85;1.00;;;;;;;-145.69;55.71;52129.50;5116599;28;20228;-80
2023/09/24 09:54:48;;;;;;;4.68;1.00;;;;;;;-145.69;55.82;52153.28;5114575;28;20193;-79
2023/09/24 09:57:16;;;;;;;1.48;0.70;;;;;;;-145.69;54.04;52115.66;5115659;28;20263;-80
2023/09/24 09:59:43;;;;;;;2.55;0.80;;;;;;;-145.69;49.63;52147.34;5116361;28;20232;-79
2023/09/24 10:02:10;;;;;;;1.52;0.80;;;;;;;-145.69;48.29;52080.00;5118729;27;20253;-80
2023/09/24 10:04:40;;;;;;;1.42;0.65;;;;;;;-145.69;46.76;52105.75;5112881;28;20201;-79
2023/09/24 10:07:06;;;;;;;3.40;0.88;;;;;;;-145.69;47.04;52135.47;5118208;28;20220;-79
2023/09/24 10:09:36;;;;;;;3.00;0.98;;;;;;;-145.69;46.13;52064.16;5115231;27;20197;-79
2023/09/24 10:12:07;;;;;;;1.60;0.80;;;;;;;-145.69;45.54;52082.00;5096881;28;20198;-80
2023/09/24 10:14:35;;;;;;;1.50;0.77;;;;;;;-145.69;44.92;52072.09;5093477;28;20198;-80
2023/09/24 10:17:24;;;;;;;3.88;0.60;;;;;;;-145.69;44.20;52074.06;5113067;28;20239;-80
2023/09/24 10:19:55;;;;;;;1.63;0.60;;;;;;;-145.69;43.54;52038.44;5128029;28;20230;-80
2023/09/24 10:22:29;;;;;;;3.55;0.73;;;;;;;-145.69;42.58;52070.09;5092885;28;20249;-80
2023/09/24 10:24:56;;;;;;;3.47;0.90;;;;;;;-145.69;42.49;52068.13;5092721;28;20205;-80
2023/09/24 10:27:28;;;;;;;2.30;0.63;;;;;;;-145.69;42.99;52046.34;5093068;28;20209;-79
2023/09/24 10:30:03;;;;;;;2.92;1.00;;;;;;;-145.69;42.04;52046.34;5121975;27;20545;-80
2023/09/24 10:32:43;;;;;;;2.00;0.80;;;;;;;-145.69;41.24;52028.53;5120104;27;20192;-80
2023/09/24 10:35:11;;;;;;;1.58;0.90;;;;;;;-145.69;41.75;52034.47;5127607;27;20193;-80
2023/09/24 10:37:56;;;;;;;2.55;0.90;;;;;;;-145.69;40.94;52030.50;5106868;27;20201;-81
2023/09/24 10:40:26;;;;;;;2.00;0.65;;;;;;;-145.69;40.86;52050.31;5116406;28;20262;-80
2023/09/24 10:43:19;;;;;;;3.03;0.90;;;;;;;-145.69;40.39;52054.25;5116969;27;20189;-80
2023/09/24 10:45:46;;;;;;;1.67;1.00;;;;;;;-145.69;40.34;52026.53;5123939;27;20193;-81
2023/09/24 10:48:14;;;;;;;3.55;1.50;;;;;;;-145.69;39.65;52052.28;5137010;27;20562;-80
2023/09/24 10:50:41;;;;;;;2.30;0.70;;;;;;;-145.69;39.98;52026.53;5120990;27;20191;-80
2023/09/24 10:53:09;;;;;;;1.38;0.80;;;;;;;-145.69;40.32;52056.25;5107099;27;20639;-80
2023/09/24 10:55:37;;;;;;;1.60;0.90;;;;;;;-145.69;39.29;52036.44;5122809;27;20190;-80
2023/09/24 10:58:06;;;;;;;2.08;1.02;;;;;;;-145.69;39.78;52042.38;5095774;28;20198;-79
2023/09/24 11:00:37;;;;;;;3.97;1.08;;;;;;;-145.69;39.94;52042.38;5096362;28;20218;-80
2023/09/24 11:03:06;;;;;;;2.30;0.80;;;;;;;-145.69;39.60;52060.22;5099554;27;20278;-80
2023/09/24 11:05:36;;;;;;;1.30;0.70;;;;;;;-145.69;39.77;52050.31;5116348;28;20262;-81
2023/09/24 11:08:06;;;;;;;4.10;0.95;;;;;;;-145.69;40.72;52024.56;5129490;27;20711;-80
2023/09/24 11:10:32;;;;;;;1.17;0.70;;;;;;;-145.69;39.57;52040.41;5125557;27;20194;-81
2023/09/24 11:13:05;;;;;;;3.47;0.90;;;;;;;-145.69;39.68;52018.63;5102150;27;20216;-81
2023/09/24 11:15:37;;;;;;;3.45;0.98;;;;;;;-145.69;39.20;52004.75;5137923;27;20552;-81
2023/09/24 11:18:04;;;;;;;0.90;0.68;;;;;;;-145.69;38.42;52028.53;5137297;27;20229;-80
2023/09/24 11:20:37;;;;;;;1.50;0.73;;;;;;;-145.69;38.28;52012.69;5131598;27;20575;-80